Time;durP1;ratioP1;P1;durP2;ratioP2;P2;SDS_P1;SDS_P2;PMS_P1;PMS_P2;Temp;Humidity;BMP_temperature;BMP_pressure;BME280_temperature;BME280_humidity;BME280_pressure;Samples;Min_cycle;Max_cycle;Signal;HPM_P1;HPM_P2
2022/10/20 00:01:18;;;;;;;9.38;4.18;;;8.20;99.90;;;;;;4982374;28;20046;-87
2022/10/20 00:03:44;;;;;;;9.02;4.40;;;7.80;99.90;;;;;;4983654;28;20137;-87
2022/10/20 00:06:19;;;;;;;5.57;3.75;;;7.70;99.90;;;;;;4970769;28;20051;-87
2022/10/20 00:08:45;;;;;;;5.97;4.25;;;7.70;99.90;;;;;;4975373;28;20442;-87
2022/10/20 00:11:13;;;;;;;8.25;4.60;;;7.70;99.90;;;;;;4983797;28;20071;-88
2022/10/20 00:13:40;;;;;;;10.95;3.97;;;7.70;99.90;;;;;;4970349;28;20058;-86
2022/10/20 00:16:07;;;;;;;10.90;4.72;;;7.60;99.90;;;;;;4985348;28;20080;-87
2022/10/20 00:18:35;;;;;;;10.20;4.38;;;7.60;99.90;;;;;;4977936;28;20051;-86
2022/10/20 00:21:11;;;;;;;10.15;4.07;;;7.50;99.90;;;;;;4971345;28;20053;-87
2022/10/20 00:23:36;;;;;;;7.53;4.53;;;7.50;99.90;;;;;;4969340;28;20133;-86
2022/10/20 00:26:06;;;;;;;8.52;4.10;;;7.50;99.90;;;;;;4978286;28;20611;-87
2022/10/20 00:28:32;;;;;;;6.25;3.67;;;7.50;99.90;;;;;;4987981;28;20138;-87
2022/10/20 00:30:58;;;;;;;5.88;4.38;;;7.50;99.90;;;;;;4988401;28;20492;-87
2022/10/20 00:33:24;;;;;;;6.32;4.00;;;7.50;99.90;;;;;;4981881;28;20098;-86
2022/10/20 00:35:50;;;;;;;5.55;4.03;;;7.40;99.90;;;;;;4970144;28;20050;-87
2022/10/20 00:38:16;;;;;;;8.43;4.07;;;7.40;99.90;;;;;;4977881;28;20828;-87
2022/10/20 00:40:42;;;;;;;8.13;4.68;;;7.40;99.90;;;;;;4987850;28;20134;-87
2022/10/20 00:43:15;;;;;;;10.48;4.38;;;7.30;99.90;;;;;;4985377;28;20042;-86
2022/10/20 00:45:43;;;;;;;8.18;4.78;;;7.30;99.90;;;;;;4989000;28;20050;-87
2022/10/20 00:48:18;;;;;;;10.43;4.63;;;7.30;99.90;;;;;;4976463;28;20054;-87
2022/10/20 00:50:52;;;;;;;8.93;4.18;;;7.30;99.90;;;;;;4968446;28;20081;-86
2022/10/20 00:53:21;;;;;;;7.70;4.20;;;7.80;99.90;;;;;;4972298;28;20497;-85
2022/10/20 00:55:49;;;;;;;9.65;4.15;;;7.20;99.90;;;;;;4983316;28;20054;-86
2022/10/20 00:58:15;;;;;;;6.25;3.78;;;7.20;99.90;;;;;;4983549;28;20050;-86
2022/10/20 01:00:43;;;;;;;12.38;4.60;;;7.20;99.90;;;;;;4983979;28;20429;-86
2022/10/20 01:03:15;;;;;;;6.50;4.20;;;7.70;99.90;;;;;;4995600;28;20055;-85
2022/10/20 01:05:41;;;;;;;8.32;4.30;;;7.60;99.90;;;;;;4981852;28;20054;-87
2022/10/20 01:08:06;;;;;;;12.00;4.68;;;7.10;99.90;;;;;;4988551;28;20050;-86
2022/10/20 01:10:56;;;;;;;8.65;4.63;;;7.10;99.90;;;;;;4987658;28;20050;-87
2022/10/20 01:13:42;;;;;;;7.45;4.07;;;7.00;99.90;;;;;;4975686;28;20189;-86
2022/10/20 01:16:24;;;;;;;8.85;4.40;;;7.00;99.90;;;;;;4971684;28;20089;-86
2022/10/20 01:19:20;;;;;;;12.98;4.47;;;7.00;99.90;;;;;;4974031;28;20097;-87
2022/10/20 01:22:07;;;;;;;13.80;4.22;;;7.00;99.90;;;;;;4988365;28;20077;-87
2022/10/20 01:25:03;;;;;;;9.35;4.45;;;6.90;99.90;;;;;;4988700;28;20046;-87
2022/10/20 01:27:37;;;;;;;12.82;4.60;;;6.90;99.90;;;;;;4978185;28;20046;-87
2022/10/20 01:30:02;;;;;;;8.45;4.50;;;6.90;99.90;;;;;;4970117;28;20042;-87
2022/10/20 01:32:58;;;;;;;6.72;4.13;;;6.90;99.90;;;;;;4979414;28;20181;-87
2022/10/20 01:35:30;;;;;;;8.57;4.75;;;6.90;99.90;;;;;;4969137;28;20105;-86
2022/10/20 01:38:23;;;;;;;6.22;4.57;;;6.90;99.90;;;;;;4986558;28;20097;-87
2022/10/20 01:41:01;;;;;;;5.40;4.28;;;6.90;99.90;;;;;;4987317;28;20134;-87
2022/10/20 01:43:31;;;;;;;6.25;4.15;;;6.90;99.90;;;;;;4983289;28;20046;-87
2022/10/20 01:45:58;;;;;;;12.45;4.78;;;6.90;99.90;;;;;;4988860;28;20125;-88
2022/10/20 01:48:27;;;;;;;11.07;4.30;;;6.80;99.90;;;;;;4981554;28;20046;-86
2022/10/20 01:50:54;;;;;;;10.82;4.75;;;6.80;99.90;;;;;;4969103;28;20046;-87
2022/10/20 01:53:20;;;;;;;7.35;4.05;;;6.90;99.90;;;;;;4967462;28;20058;-87
2022/10/20 01:55:50;;;;;;;6.80;4.03;;;6.80;99.90;;;;;;4968212;28;20042;-87
2022/10/20 01:58:43;;;;;;;7.65;4.30;;;6.80;99.90;;;;;;4982255;28;20074;-86
2022/10/20 02:01:17;;;;;;;8.68;4.40;;;6.80;99.90;;;;;;4979727;28;20062;-87
2022/10/20 02:03:55;;;;;;;7.72;4.50;;;6.80;99.90;;;;;;4973134;28;20062;-87
2022/10/20 02:06:34;;;;;;;7.97;4.45;;;6.70;99.90;;;;;;4978638;28;20077;-86
2022/10/20 02:09:04;;;;;;;7.03;4.55;;;6.70;99.90;;;;;;4984322;28;20061;-86
2022/10/20 02:11:41;;;;;;;5.63;4.13;;;6.70;99.90;;;;;;4970855;28;20105;-86
2022/10/20 02:14:10;;;;;;;6.65;4.57;;;6.70;99.90;;;;;;4984362;28;20078;-87
2022/10/20 02:16:40;;;;;;;6.25;5.13;;;6.70;99.90;;;;;;4972059;28;20042;-88
2022/10/20 02:19:09;;;;;;;9.20;4.55;;;6.60;99.90;;;;;;4988138;28;20523;-86
2022/10/20 02:21:35;;;;;;;7.47;4.78;;;6.60;99.90;;;;;;4971615;28;20050;-87
2022/10/20 02:24:04;;;;;;;9.35;5.20;;;6.60;99.90;;;;;;4987112;28;20096;-86
2022/10/20 02:26:31;;;;;;;9.75;4.80;;;6.60;99.90;;;;;;4986824;28;20159;-87
2022/10/20 02:29:05;;;;;;;8.63;4.82;;;6.60;99.90;;;;;;4985501;28;20038;-86
2022/10/20 02:31:30;;;;;;;11.63;5.10;;;6.60;99.90;;;;;;4986770;28;20039;-86
2022/10/20 02:33:57;;;;;;;9.05;4.97;;;6.60;99.90;;;;;;4971751;28;20448;-86
2022/10/20 02:36:26;;;;;;;10.75;5.25;;;6.60;99.90;;;;;;4972968;28;20100;-86
2022/10/20 02:38:52;;;;;;;7.10;5.07;;;6.60;99.90;;;;;;4971686;28;20569;-87
2022/10/20 02:41:18;;;;;;;10.00;5.20;;;7.00;99.90;;;;;;4986997;28;20164;-87
2022/10/20 02:43:43;;;;;;;9.00;5.35;;;6.50;99.90;;;;;;4984656;28;20042;-87
2022/10/20 02:46:09;;;;;;;9.85;5.45;;;6.50;99.90;;;;;;4983403;28;20471;-86
2022/10/20 02:48:37;;;;;;;16.27;5.07;;;6.50;99.90;;;;;;4986173;28;20045;-88
2022/10/20 02:51:04;;;;;;;8.82;4.95;;;6.50;99.90;;;;;;4988031;28;20153;-87
2022/10/20 02:53:30;;;;;;;9.38;4.90;;;7.50;99.90;;;;;;4986755;28;20042;-87
2022/10/20 02:55:55;;;;;;;8.55;5.82;;;6.50;99.90;;;;;;4971719;28;20043;-87
2022/10/20 02:58:21;;;;;;;9.75;5.15;;;6.50;99.90;;;;;;5002821;28;20104;-85
2022/10/20 03:00:49;;;;;;;8.85;5.32;;;6.50;99.90;;;;;;4988257;28;20504;-86
2022/10/20 03:03:15;;;;;;;9.07;5.43;;;6.50;99.90;;;;;;4987135;28;20489;-86
2022/10/20 03:05:43;;;;;;;8.00;5.68;;;6.50;99.90;;;;;;4987498;28;20058;-87
2022/10/20 03:08:09;;;;;;;6.00;5.10;;;6.40;99.90;;;;;;4987340;28;20043;-86
2022/10/20 03:10:36;;;;;;;11.48;6.45;;;6.90;99.90;;;;;;4988066;28;20042;-86
2022/10/20 03:13:02;;;;;;;7.93;5.43;;;6.40;99.90;;;;;;4970444;28;20054;-86
2022/10/20 03:15:28;;;;;;;6.68;5.57;;;6.50;99.90;;;;;;4990121;28;20065;-86
2022/10/20 03:17:53;;;;;;;8.35;5.50;;;6.50;99.90;;;;;;4972940;28;20050;-87
2022/10/20 03:20:19;;;;;;;7.75;6.07;;;6.40;99.90;;;;;;4991592;28;20042;-86
2022/10/20 03:22:45;;;;;;;10.23;5.85;;;6.40;99.90;;;;;;4975070;28;20074;-87
2022/10/20 03:25:10;;;;;;;9.50;5.95;;;6.40;99.90;;;;;;4974657;28;20046;-88
2022/10/20 03:27:36;;;;;;;8.70;6.03;;;6.40;99.90;;;;;;4990298;28;20042;-87
2022/10/20 03:30:02;;;;;;;10.70;7.03;;;6.40;99.90;;;;;;4991391;28;20058;-87
2022/10/20 03:32:28;;;;;;;11.02;6.65;;;6.40;99.90;;;;;;4983070;28;20042;-87
2022/10/20 03:34:54;;;;;;;10.25;6.18;;;6.40;99.90;;;;;;4956290;28;20058;-86
2022/10/20 03:37:19;;;;;;;9.35;6.15;;;6.40;99.90;;;;;;4971713;28;20394;-88
2022/10/20 03:39:45;;;;;;;9.80;6.60;;;6.40;99.90;;;;;;4977916;28;20049;-87
2022/10/20 03:42:10;;;;;;;11.73;6.82;;;6.40;99.90;;;;;;4986608;28;20045;-87
2022/10/20 03:44:37;;;;;;;11.40;6.68;;;6.80;99.90;;;;;;4990111;28;20038;-87
2022/10/20 03:47:02;;;;;;;12.23;6.50;;;6.40;99.90;;;;;;4977299;28;20053;-87
2022/10/20 03:49:28;;;;;;;9.93;7.05;;;6.40;99.90;;;;;;4975308;28;20081;-87
2022/10/20 03:51:53;;;;;;;10.00;7.10;;;6.40;99.90;;;;;;4990471;28;20501;-87
2022/10/20 03:54:19;;;;;;;14.02;7.80;;;6.40;99.90;;;;;;4990611;28;20042;-87
2022/10/20 03:56:44;;;;;;;11.13;7.65;;;6.40;99.90;;;;;;4983102;28;20043;-88
2022/10/20 03:59:10;;;;;;;12.07;7.50;;;6.40;99.90;;;;;;4989350;28;20055;-87
2022/10/20 04:01:36;;;;;;;12.13;7.95;;;6.40;99.90;;;;;;4985687;28;20453;-88
2022/10/20 04:04:02;;;;;;;10.85;7.88;;;6.40;99.90;;;;;;4977733;28;20042;-87
2022/10/20 04:06:27;;;;;;;12.10;8.55;;;6.30;99.90;;;;;;4988622;28;20046;-88
2022/10/20 04:08:53;;;;;;;12.10;7.93;;;7.00;99.90;;;;;;4988314;28;20053;-86
2022/10/20 04:11:19;;;;;;;12.90;8.80;;;6.30;99.90;;;;;;4972543;28;20038;-86
2022/10/20 04:13:44;;;;;;;10.73;7.47;;;6.40;99.90;;;;;;4989904;28;20417;-86
2022/10/20 04:16:10;;;;;;;10.20;7.88;;;6.40;99.90;;;;;;4988633;28;20137;-86
2022/10/20 04:18:35;;;;;;;11.40;8.60;;;6.40;99.90;;;;;;4988834;28;20046;-85
2022/10/20 04:21:01;;;;;;;10.13;8.02;;;6.30;99.90;;;;;;4973133;28;20081;-86
2022/10/20 04:23:27;;;;;;;12.73;8.43;;;6.40;99.90;;;;;;4990973;28;20074;-87
2022/10/20 04:25:52;;;;;;;9.45;8.40;;;7.10;99.90;;;;;;4968177;28;20051;-87
2022/10/20 04:28:19;;;;;;;15.30;8.05;;;6.40;99.90;;;;;;4986329;28;20047;-87
2022/10/20 04:30:46;;;;;;;9.80;8.07;;;6.40;99.90;;;;;;4974011;28;20045;-87
2022/10/20 04:33:12;;;;;;;11.77;8.70;;;6.30;99.90;;;;;;4990931;28;20069;-87
2022/10/20 04:35:38;;;;;;;11.63;8.75;;;6.40;99.90;;;;;;4990612;28;20088;-87
2022/10/20 04:38:03;;;;;;;11.27;8.25;;;6.30;99.90;;;;;;4988762;28;20046;-86
2022/10/20 04:40:29;;;;;;;13.60;8.98;;;6.40;99.90;;;;;;4987865;28;20463;-87
2022/10/20 04:42:57;;;;;;;17.15;9.02;;;6.40;99.90;;;;;;4975093;28;20088;-86
2022/10/20 04:45:22;;;;;;;10.85;9.40;;;6.40;99.90;;;;;;4983375;28;20101;-87
2022/10/20 04:47:48;;;;;;;14.60;9.30;;;6.40;99.90;;;;;;4980143;28;20046;-86
2022/10/20 04:50:14;;;;;;;12.90;8.75;;;6.40;99.90;;;;;;4983336;28;20108;-85
2022/10/20 04:52:39;;;;;;;12.98;9.45;;;6.50;99.90;;;;;;4989084;28;20049;-86
2022/10/20 04:55:05;;;;;;;10.30;9.10;;;6.70;99.90;;;;;;4983345;28;20685;-87
2022/10/20 04:57:31;;;;;;;12.93;9.88;;;6.40;99.90;;;;;;4971182;28;20042;-87
2022/10/20 04:59:56;;;;;;;13.73;9.80;;;6.40;99.90;;;;;;4986736;28;20050;-87
2022/10/20 05:02:23;;;;;;;13.18;9.85;;;6.40;99.90;;;;;;4988665;28;20508;-86
2022/10/20 05:04:49;;;;;;;13.63;9.55;;;6.50;99.90;;;;;;4989145;28;20061;-87
2022/10/20 05:07:14;;;;;;;14.52;9.88;;;6.50;99.90;;;;;;4979902;28;20043;-85
2022/10/20 05:09:40;;;;;;;11.45;9.45;;;6.40;99.90;;;;;;4984684;28;20054;-87
2022/10/20 05:12:06;;;;;;;11.30;9.65;;;6.50;99.90;;;;;;4987131;28;20401;-86
2022/10/20 05:14:32;;;;;;;12.80;9.60;;;6.50;99.90;;;;;;4958082;28;20126;-87
2022/10/20 05:16:57;;;;;;;12.63;9.63;;;6.50;99.90;;;;;;4972891;28;20149;-88
2022/10/20 05:19:23;;;;;;;13.88;9.93;;;6.50;99.90;;;;;;4973725;28;20398;-87
2022/10/20 05:21:48;;;;;;;17.85;11.68;;;6.50;99.90;;;;;;4984433;28;20039;-87
2022/10/20 05:24:16;;;;;;;15.15;9.88;;;6.50;99.90;;;;;;4980921;28;20097;-86
2022/10/20 05:26:42;;;;;;;12.00;9.88;;;6.40;99.90;;;;;;4987243;28;20125;-86
2022/10/20 05:29:09;;;;;;;13.85;9.63;;;6.40;99.90;;;;;;4981363;28;20457;-87
2022/10/20 05:31:40;;;;;;;16.75;10.82;;;6.40;99.90;;;;;;4987460;28;20126;-87
2022/10/20 05:34:06;;;;;;;13.43;10.45;;;6.40;99.90;;;;;;4969720;28;20075;-87
2022/10/20 05:36:32;;;;;;;13.90;10.65;;;6.40;99.90;;;;;;4984274;28;20069;-87
2022/10/20 05:38:57;;;;;;;12.80;10.05;;;6.40;99.90;;;;;;4980587;28;20830;-86
2022/10/20 05:41:26;;;;;;;11.68;9.55;;;6.40;99.90;;;;;;4986189;28;20125;-88
2022/10/20 05:43:56;;;;;;;16.00;10.93;;;6.40;99.90;;;;;;4988349;28;20050;-88
2022/10/20 05:46:22;;;;;;;16.02;11.10;;;6.50;99.90;;;;;;4977919;28;20045;-85
2022/10/20 05:48:51;;;;;;;14.93;10.55;;;6.80;99.90;;;;;;4980210;28;20050;-87
2022/10/20 05:51:19;;;;;;;16.67;11.60;;;6.40;99.90;;;;;;4980883;28;20057;-87
2022/10/20 05:53:46;;;;;;;12.93;10.75;;;6.40;99.90;;;;;;4981649;28;20096;-87
2022/10/20 05:56:13;;;;;;;14.05;10.45;;;6.40;99.90;;;;;;4970149;28;20097;-87
2022/10/20 05:58:40;;;;;;;18.15;11.05;;;6.40;99.90;;;;;;4987732;28;20172;-86
2022/10/20 06:01:23;;;;;;;15.27;11.13;;;6.40;99.90;;;;;;4985880;28;20049;-86
2022/10/20 06:03:52;;;;;;;;;;;7.10;99.90;;;;;;4973809;28;20918;-87
2022/10/20 06:06:20;;;;;;;13.93;10.15;;;6.40;99.90;;;;;;4969236;28;19941;-87
2022/10/20 06:08:45;;;;;;;15.73;11.95;;;6.40;99.90;;;;;;4985723;28;20069;-87
2022/10/20 06:11:13;;;;;;;15.98;11.13;;;6.40;99.90;;;;;;5003402;28;20493;-85
2022/10/20 06:13:39;;;;;;;15.80;12.20;;;6.40;99.90;;;;;;4988283;28;20051;-87
2022/10/20 06:16:07;;;;;;;17.48;11.98;;;6.40;99.90;;;;;;4987099;28;20042;-89
2022/10/20 06:18:33;;;;;;;15.75;11.23;;;6.40;99.90;;;;;;4989866;28;20048;-88
2022/10/20 06:21:07;;;;;;;12.55;10.98;;;6.40;99.90;;;;;;4988566;28;20493;-87
2022/10/20 06:23:33;;;;;;;17.25;11.90;;;6.40;99.90;;;;;;4972170;28;20038;-87
2022/10/20 06:26:07;;;;;;;15.77;10.93;;;6.40;99.90;;;;;;4970205;28;20047;-87
2022/10/20 06:28:34;;;;;;;13.27;11.10;;;6.40;99.90;;;;;;4968418;28;20615;-86
2022/10/20 06:31:08;;;;;;;15.70;11.40;;;6.40;99.90;;;;;;4971382;28;20042;-86
2022/10/20 06:33:34;;;;;;;17.90;11.63;;;6.40;99.90;;;;;;4980058;28;20097;-87
2022/10/20 06:36:02;;;;;;;17.00;12.00;;;6.40;99.90;;;;;;4977179;28;20421;-87
2022/10/20 06:38:28;;;;;;;12.63;10.93;;;6.40;99.90;;;;;;4986008;28;20415;-87
2022/10/20 06:40:53;;;;;;;16.08;11.40;;;6.50;99.90;;;;;;4988082;28;20046;-87
2022/10/20 06:43:19;;;;;;;14.10;11.18;;;6.50;99.90;;;;;;4987697;28;20184;-87
2022/10/20 06:45:56;;;;;;;15.13;11.93;;;6.50;99.90;;;;;;4987622;28;20156;-86
2022/10/20 06:48:23;;;;;;;13.75;11.10;;;6.60;99.90;;;;;;4986456;28;20038;-88
2022/10/20 06:50:49;;;;;;;18.38;12.07;;;6.60;99.90;;;;;;4972238;28;20138;-87
2022/10/20 06:53:14;;;;;;;16.65;11.57;;;6.60;99.90;;;;;;4955586;28;20121;-87
2022/10/20 06:55:40;;;;;;;19.25;12.35;;;6.60;99.90;;;;;;4972969;28;20420;-87
2022/10/20 06:58:05;;;;;;;15.73;11.88;;;6.70;99.90;;;;;;4971609;28;20050;-90
2022/10/20 07:00:31;;;;;;;14.77;11.75;;;6.70;99.90;;;;;;4972171;28;20046;-85
2022/10/20 07:02:56;;;;;;;17.75;12.13;;;6.80;99.90;;;;;;4974698;28;20493;-85
2022/10/20 07:05:22;;;;;;;13.52;11.18;;;6.80;99.90;;;;;;4989229;28;20096;-86
2022/10/20 07:07:51;;;;;;;15.73;12.25;;;7.50;99.90;;;;;;4971869;28;20134;-87
2022/10/20 07:10:17;;;;;;;16.38;11.82;;;6.90;99.90;;;;;;4955473;28;20043;-86
2022/10/20 07:12:42;;;;;;;18.40;12.07;;;7.00;99.90;;;;;;4972171;28;20581;-89
2022/10/20 07:15:08;;;;;;;15.13;11.27;;;7.00;99.90;;;;;;4971626;28;20086;-86
2022/10/20 07:17:34;;;;;;;16.90;11.90;;;7.10;99.90;;;;;;4970856;28;20047;-86
2022/10/20 07:20:00;;;;;;;15.20;11.35;;;7.10;99.90;;;;;;4971248;28;20109;-86
2022/10/20 07:22:25;;;;;;;17.67;11.10;;;7.20;99.90;;;;;;4971875;28;20042;-87
2022/10/20 07:24:51;;;;;;;15.38;11.15;;;7.20;99.90;;;;;;4971583;28;20093;-87
2022/10/20 07:27:17;;;;;;;13.15;11.20;;;7.20;99.90;;;;;;4973398;28;20097;-89
2022/10/20 07:29:43;;;;;;;13.68;11.13;;;7.30;99.90;;;;;;4971754;28;20082;-86
2022/10/20 07:32:08;;;;;;;20.48;11.25;;;7.30;99.90;;;;;;4972259;28;20054;-85
2022/10/20 07:34:34;;;;;;;18.08;11.35;;;7.40;99.90;;;;;;4970222;28;20505;-87
2022/10/20 07:36:59;;;;;;;15.32;11.68;;;7.40;99.90;;;;;;4971363;28;20046;-84
2022/10/20 07:39:25;;;;;;;17.10;10.75;;;7.40;99.90;;;;;;4974047;28;20046;-86
2022/10/20 07:41:51;;;;;;;18.88;10.48;;;7.50;99.90;;;;;;4989508;28;20049;-86
2022/10/20 07:44:17;;;;;;;14.80;11.18;;;8.00;99.90;;;;;;4974436;28;20063;-86
2022/10/20 07:46:43;;;;;;;11.93;10.63;;;7.50;99.90;;;;;;4988016;28;20117;-86
2022/10/20 07:49:08;;;;;;;13.85;11.15;;;7.60;99.90;;;;;;4989192;28;20453;-86
2022/10/20 07:51:34;;;;;;;14.30;10.85;;;7.60;99.90;;;;;;4989342;28;20038;-86
2022/10/20 07:54:02;;;;;;;12.98;10.90;;;7.70;99.90;;;;;;4990103;28;20050;-86
2022/10/20 07:56:30;;;;;;;17.58;11.27;;;7.70;99.90;;;;;;4988865;28;20116;-86
2022/10/20 07:58:56;;;;;;;14.15;11.20;;;7.80;99.90;;;;;;4989512;28;20050;-88
2022/10/20 08:01:22;;;;;;;12.82;10.50;;;7.90;99.90;;;;;;4986607;28;20042;-86
2022/10/20 08:03:48;;;;;;;14.65;11.38;;;8.00;99.90;;;;;;4970930;28;20049;-85
2022/10/20 08:06:13;;;;;;;15.98;10.55;;;8.00;99.90;;;;;;4970233;28;20517;-85
2022/10/20 08:08:39;;;;;;;14.48;10.90;;;8.10;99.90;;;;;;4969998;28;20047;-85
2022/10/20 08:11:04;;;;;;;15.23;10.63;;;8.20;99.90;;;;;;4973236;28;20043;-86
2022/10/20 08:13:30;;;;;;;14.02;10.13;;;8.30;99.90;;;;;;4970746;28;20509;-86
2022/10/20 08:15:56;;;;;;;17.00;10.73;;;8.40;99.90;;;;;;4986438;28;20061;-86
2022/10/20 08:18:22;;;;;;;13.57;10.18;;;8.40;99.90;;;;;;4983072;28;20089;-85
2022/10/20 08:20:48;;;;;;;14.70;10.32;;;8.50;99.90;;;;;;5002428;28;20054;-86
2022/10/20 08:23:15;;;;;;;13.23;9.70;;;8.50;99.90;;;;;;4970411;28;20047;-85
2022/10/20 08:25:41;;;;;;;11.85;9.77;;;8.60;99.90;;;;;;4970141;28;20493;-85
2022/10/20 08:28:07;;;;;;;12.60;10.35;;;8.60;99.90;;;;;;4980398;28;20364;-87
2022/10/20 08:30:33;;;;;;;13.00;9.77;;;8.60;99.90;;;;;;4984801;28;20170;-86
2022/10/20 08:32:59;;;;;;;13.68;9.55;;;9.10;99.90;;;;;;4990817;28;20119;-85
2022/10/20 08:35:25;;;;;;;11.68;9.50;;;8.70;99.90;;;;;;4988603;28;20042;-87
2022/10/20 08:37:50;;;;;;;11.80;9.73;;;8.80;99.90;;;;;;4989608;28;20061;-87
2022/10/20 08:40:20;;;;;;;14.73;9.93;;;8.80;99.90;;;;;;4989404;28;20070;-86
2022/10/20 08:42:46;;;;;;;11.27;8.90;;;8.90;99.90;;;;;;4972926;28;20112;-86
2022/10/20 08:45:19;;;;;;;11.35;10.02;;;9.00;99.90;;;;;;4971041;28;20849;-86
2022/10/20 08:47:47;;;;;;;17.98;9.68;;;9.00;99.90;;;;;;4971570;28;20046;-87
2022/10/20 08:50:16;;;;;;;12.30;9.18;;;9.10;99.90;;;;;;4974848;28;20039;-86
2022/10/20 08:52:43;;;;;;;15.82;9.55;;;9.20;99.90;;;;;;4986385;28;20082;-86
2022/10/20 08:55:28;;;;;;;10.63;9.07;;;9.40;99.90;;;;;;4968426;28;20409;-88
2022/10/20 08:58:03;;;;;;;11.30;9.00;;;9.40;99.90;;;;;;4977609;28;20047;-89
2022/10/20 09:00:30;;;;;;;10.95;9.05;;;9.50;99.90;;;;;;4988637;28;20833;-87
2022/10/20 09:03:01;;;;;;;12.57;8.50;;;9.90;99.90;;;;;;4987287;28;20054;-87
2022/10/20 09:05:30;;;;;;;15.10;9.25;;;9.70;99.90;;;;;;4989357;28;20058;-86
2022/10/20 09:07:56;;;;;;;10.52;8.38;;;9.80;99.90;;;;;;4989395;28;20045;-87
2022/10/20 09:10:35;;;;;;;12.18;8.82;;;10.40;99.90;;;;;;4958347;28;20066;-88
2022/10/20 09:13:04;;;;;;;10.75;8.68;;;9.90;99.90;;;;;;4966910;28;20045;-87
2022/10/20 09:15:30;;;;;;;10.20;9.20;;;9.90;99.90;;;;;;4973233;28;20180;-87
2022/10/20 09:18:08;;;;;;;11.07;8.95;;;10.60;99.90;;;;;;4988324;28;20047;-87
2022/10/20 09:20:46;;;;;;;11.02;8.27;;;10.10;99.90;;;;;;4988284;28;20065;-87
2022/10/20 09:23:19;;;;;;;11.65;8.57;;;10.10;99.90;;;;;;4987725;28;20053;-86
2022/10/20 09:25:47;;;;;;;10.90;8.95;;;10.20;99.90;;;;;;4983807;28;20667;-86
2022/10/20 09:28:25;;;;;;;10.85;8.65;;;10.10;99.90;;;;;;4969811;28;20128;-87
2022/10/20 09:30:52;;;;;;;11.38;9.13;;;10.10;99.90;;;;;;4971155;28;20488;-85
2022/10/20 09:33:25;;;;;;;11.85;7.70;;;10.40;99.90;;;;;;4969567;28;20126;-86
2022/10/20 09:35:51;;;;;;;9.50;8.50;;;10.30;99.90;;;;;;4970126;28;20050;-86
2022/10/20 09:38:28;;;;;;;13.45;8.50;;;10.30;99.90;;;;;;4969037;28;20117;-85
2022/10/20 09:40:57;;;;;;;10.85;8.80;;;10.40;99.90;;;;;;4968212;28;20046;-86
2022/10/20 09:43:25;;;;;;;11.50;8.55;;;10.40;99.90;;;;;;4973818;28;20053;-85
2022/10/20 09:46:04;;;;;;;9.60;8.40;;;10.50;99.90;;;;;;4983663;28;20058;-86
2022/10/20 09:48:37;;;;;;;10.52;8.68;;;10.50;99.90;;;;;;4969853;28;20050;-87
2022/10/20 09:51:05;;;;;;;9.95;8.07;;;10.50;99.90;;;;;;4968975;28;20552;-86
2022/10/20 09:53:59;;;;;;;10.50;8.18;;;10.60;99.90;;;;;;4969611;28;20042;-86
2022/10/20 09:56:34;;;;;;;12.38;8.23;;;10.60;99.90;;;;;;4951895;28;20062;-86
2022/10/20 09:59:04;;;;;;;11.23;8.25;;;10.60;99.90;;;;;;4966466;28;20058;-87
2022/10/20 10:01:30;;;;;;;11.80;8.65;;;10.70;99.90;;;;;;4987758;28;20236;-87
2022/10/20 10:04:00;;;;;;;13.20;8.30;;;10.70;99.90;;;;;;4984272;28;20201;-86
2022/10/20 10:06:42;;;;;;;9.60;8.52;;;11.60;99.90;;;;;;4970708;28;20057;-86
2022/10/20 10:09:36;;;;;;;10.93;7.75;;;10.90;99.90;;;;;;4968184;28;20046;-86
2022/10/20 10:12:05;;;;;;;10.43;7.88;;;11.00;99.90;;;;;;4966833;28;20305;-86
2022/10/20 10:14:34;;;;;;;11.77;8.00;;;11.20;99.90;;;;;;4967810;28;20039;-86
2022/10/20 10:17:00;;;;;;;8.80;7.50;;;11.30;99.90;;;;;;4981442;28;20719;-85
2022/10/20 10:19:30;;;;;;;9.57;7.88;;;11.40;99.90;;;;;;4979391;28;20035;-86
2022/10/20 10:22:01;;;;;;;13.15;7.97;;;11.50;99.90;;;;;;4971438;28;20519;-86
2022/10/20 10:24:45;;;;;;;9.67;7.67;;;11.60;99.90;;;;;;4985424;28;20091;-86
2022/10/20 10:27:27;;;;;;;11.43;6.55;;;11.80;99.90;;;;;;4991258;28;20058;-84
2022/10/20 10:29:54;;;;;;;11.95;8.05;;;11.80;99.90;;;;;;4990381;28;20077;-85
2022/10/20 10:32:26;;;;;;;12.00;7.43;;;11.90;99.90;;;;;;4994552;28;20503;-86
2022/10/20 10:35:09;;;;;;;9.43;7.68;;;11.90;99.90;;;;;;4996083;28;20038;-86
2022/10/20 10:37:37;;;;;;;9.52;7.47;;;11.90;99.90;;;;;;4986346;28;20057;-86
2022/10/20 10:40:16;;;;;;;9.05;7.65;;;12.00;99.90;;;;;;4982117;28;20065;-85
2022/10/20 10:42:56;;;;;;;8.90;7.63;;;12.00;99.90;;;;;;4967378;28;20058;-86
2022/10/20 10:45:44;;;;;;;11.68;8.15;;;12.10;99.90;;;;;;4984509;28;20047;-86
2022/10/20 10:48:42;;;;;;;9.02;7.30;;;12.20;99.90;;;;;;4988181;28;20063;-86
2022/10/20 10:51:10;;;;;;;11.43;7.88;;;12.20;99.90;;;;;;4949588;28;20055;-86
2022/10/20 10:53:49;;;;;;;8.65;7.15;;;12.30;99.90;;;;;;4984086;28;20430;-86
2022/10/20 10:56:36;;;;;;;10.38;7.60;;;12.40;99.90;;;;;;4990426;28;20038;-85
2022/10/20 10:59:22;;;;;;;9.55;7.85;;;12.40;99.90;;;;;;4990889;28;20724;-86
2022/10/20 11:01:59;;;;;;;10.43;7.60;;;12.60;99.90;;;;;;4974740;28;20061;-86
2022/10/20 11:04:51;;;;;;;8.35;7.50;;;12.80;99.90;;;;;;4990979;28;20044;-86
2022/10/20 11:07:26;;;;;;;12.50;7.40;;;12.90;99.90;;;;;;4988331;28;20413;-87
2022/10/20 11:10:16;;;;;;;7.78;6.97;;;13.10;99.90;;;;;;4973066;28;20142;-86
2022/10/20 11:12:59;;;;;;;8.60;7.75;;;13.20;99.90;;;;;;4990333;28;20061;-87
2022/10/20 11:15:24;;;;;;;12.38;8.00;;;13.30;99.90;;;;;;4990962;28;20046;-86
2022/10/20 11:18:04;;;;;;;10.68;8.13;;;13.30;99.90;;;;;;4992019;28;20116;-85
2022/10/20 11:20:46;;;;;;;11.68;7.72;;;13.30;99.90;;;;;;4991091;28;20058;-85
2022/10/20 11:23:36;;;;;;;9.07;7.60;;;13.20;99.90;;;;;;4988745;28;20075;-85
2022/10/20 11:26:32;;;;;;;9.23;8.20;;;13.20;99.90;;;;;;4991803;28;21412;-85
2022/10/20 11:29:00;;;;;;;8.57;7.68;;;13.20;99.90;;;;;;4991158;28;20053;-85
2022/10/20 11:31:39;;;;;;;8.95;7.72;;;13.20;99.90;;;;;;4991347;28;20368;-88
2022/10/20 11:34:44;;;;;;;12.90;7.68;;;13.30;99.90;;;;;;4970685;28;20125;-86
2022/10/20 11:37:16;;;;;;;15.95;7.65;;;13.20;99.90;;;;;;4972844;28;20433;-86
2022/10/20 11:39:51;;;;;;;8.20;6.82;;;13.20;99.90;;;;;;4989896;28;20077;-87
2022/10/20 11:42:36;;;;;;;13.40;8.05;;;13.20;99.90;;;;;;4973851;28;20089;-87
2022/10/20 11:45:15;;;;;;;11.90;8.02;;;13.20;99.90;;;;;;4990565;28;20061;-87
2022/10/20 11:47:44;;;;;;;13.13;7.40;;;13.20;99.90;;;;;;4990369;28;20496;-86
2022/10/20 11:50:11;;;;;;;9.98;7.97;;;13.20;99.90;;;;;;4990563;28;20050;-82
2022/10/20 11:53:13;;;;;;;8.85;7.35;;;13.20;99.90;;;;;;4988283;28;20720;-85
2022/10/20 11:55:45;;;;;;;11.98;7.97;;;13.20;99.90;;;;;;4975927;28;20085;-85
2022/10/20 11:58:27;;;;;;;8.10;7.05;;;13.10;99.90;;;;;;4985648;28;20042;-84
2022/10/20 12:01:12;;;;;;;11.02;8.18;;;13.20;99.90;;;;;;4990221;28;20038;-84
2022/10/20 12:03:56;;;;;;;9.30;8.25;;;13.20;99.90;;;;;;4978711;28;20138;-84
2022/10/20 12:06:50;;;;;;;10.90;7.75;;;13.10;99.90;;;;;;4969871;28;20050;-85
2022/10/20 12:09:56;;;;;;;9.35;7.97;;;13.10;99.90;;;;;;4970618;28;20469;-86
2022/10/20 12:12:51;;;;;;;13.00;8.73;;;13.10;99.90;;;;;;4932138;28;20394;-85
2022/10/20 12:15:23;;;;;;;11.15;8.10;;;13.00;99.90;;;;;;4986194;28;20564;-86
2022/10/20 12:17:51;;;;;;;9.35;8.45;;;13.20;99.90;;;;;;4976859;28;20053;-84
2022/10/20 12:20:19;;;;;;;12.02;9.85;;;12.90;99.90;;;;;;4996070;28;20536;-84
2022/10/20 12:22:50;;;;;;;9.40;8.40;;;12.90;99.90;;;;;;4985718;28;20373;-85
2022/10/20 12:25:32;;;;;;;10.50;9.40;;;12.80;99.90;;;;;;4980537;28;20493;-86
2022/10/20 12:28:19;;;;;;;17.08;8.95;;;12.30;99.90;;;;;;4986852;28;20058;-87
2022/10/20 12:30:59;;;;;;;9.88;8.98;;;12.60;99.90;;;;;;4970734;28;20386;-85
2022/10/20 12:33:58;;;;;;;11.52;8.50;;;12.60;99.90;;;;;;4972297;28;20382;-84
2022/10/20 12:36:33;;;;;;;12.00;9.23;;;12.60;99.90;;;;;;4989595;28;20043;-85
2022/10/20 12:39:13;;;;;;;11.63;9.07;;;12.00;99.90;;;;;;4989548;28;20047;-84
2022/10/20 12:42:09;;;;;;;12.73;8.98;;;12.10;99.90;;;;;;4987779;28;20049;-84
2022/10/20 12:44:42;;;;;;;11.57;9.50;;;12.50;99.90;;;;;;4978841;28;20520;-85
2022/10/20 12:47:09;;;;;;;14.23;9.65;;;13.30;99.90;;;;;;4970198;28;20051;-85
2022/10/20 12:49:39;;;;;;;12.50;9.60;;;12.60;99.90;;;;;;4970056;28;20126;-85
2022/10/20 12:52:15;;;;;;;15.73;10.98;;;12.40;99.90;;;;;;4969927;28;20051;-82
2022/10/20 12:54:42;;;;;;;12.70;10.07;;;12.40;99.90;;;;;;4970620;28;20047;-83
2022/10/20 12:57:40;;;;;;;17.95;9.75;;;12.40;99.90;;;;;;4969714;28;20038;-84
2022/10/20 13:00:26;;;;;;;12.02;9.68;;;12.40;99.90;;;;;;4984348;28;20050;-84
2022/10/20 13:02:53;;;;;;;16.95;10.23;;;12.30;99.90;;;;;;4968160;28;20739;-83
2022/10/20 13:05:28;;;;;;;18.23;9.85;;;13.20;99.90;;;;;;4989418;28;20370;-85